Accueil
METAR-TAF:

METAR-TAF

Aéroports :

Tortola, Îles Vierges britanniques

latitude: 18-27N, longitude: 064-32W, altitude: 4 m

Observation

Le bulletin a été fait il y a 7 heures et 27 minutes, à 01:00 UTC
Vent 11 kt de est/nord-est
Température 26°C
Humidité 70%
Pression 1017 hPa
Visibilité: 16.1 km
Quelques nuages à une hauteur de 2000 ft

METAR: TUPJ 050100Z 06011KT 10SM FEW020 26/20 A3003 RMK Q1016 VIS16KM

Heure: 04:27 (08:27 UTC)

Prévision

Le bulletin a été fait il y a 15 heures et 27 minutes, à 17:00 UTC
Prévision valable du 04 à 18 UTC au 05 à 18 UTC
Vent 12 kt de est/nord-est
Visibilité 10 km ou plus
Nuages épars à une hauteur de 1900 ft
Probabilité 40% :
Temporairement
du 05 à 00 UTC au 05 à 12 UTC
averses de pluie

TAF: TUPJ 041700Z 0418/0518 06012KT 9999 SCT019 PROB40 TEMPO 0500/0512 SHRA

Observations et prévisions météorologiques de plus de 4000 aéroports (messages METAR et TAF).

Les stations disponibles sont représentées par des disques jaunes et rouges sur la carte.

Passer la souris dessus pour voir le nom de la station.

Cliquer dessus pour voir les observations et prévisions météorologiques.

Pour changer de carte: cliquez sur les boutons verts avec une croix noire pour zoomer, sur le bouton vert avec un tiret pour effectuer un zoom arrière, ou sur les flèches vertes pour les cartes adjacentes.


METAR-TAF: